sensor_id;sensor_type;location;lat;lon;timestamp;noise_LAeq;noise_LA_min;noise_LA_max;noise_LA01;noise_LA95
43787;Laerm;29409;49.306;8.500;2024-01-10T00:00:53;39.30;35.94;41.75;;
43787;Laerm;29409;49.306;8.500;2024-01-10T00:01:54;39.48;34.69;41.96;;
43787;Laerm;29409;49.306;8.500;2024-01-10T00:02:54;39.09;35.66;41.53;;
43787;Laerm;29409;49.306;8.500;2024-01-10T00:03:54;38.87;34.69;41.38;;
43787;Laerm;29409;49.306;8.500;2024-01-10T00:04:54;38.78;34.31;41.30;;
43787;Laerm;29409;49.306;8.500;2024-01-10T00:05:55;38.85;35.36;41.19;;
43787;Laerm;29409;49.306;8.500;2024-01-10T00:06:55;39.73;35.36;42.65;;
43787;Laerm;29409;49.306;8.500;2024-01-10T00:07:55;39.64;35.94;42.03;;
43787;Laerm;29409;49.306;8.500;2024-01-10T00:08:56;39.72;35.94;42.59;;
43787;Laerm;29409;49.306;8.500;2024-01-10T00:09:56;40.45;37.12;45.94;;
43787;Laerm;29409;49.306;8.500;2024-01-10T00:10:57;39.46;36.20;42.88;;
43787;Laerm;29409;49.306;8.500;2024-01-10T00:11:57;39.41;36.20;41.82;;
43787;Laerm;29409;49.306;8.500;2024-01-10T00:12:57;39.26;35.36;41.89;;
43787;Laerm;29409;49.306;8.500;2024-01-10T00:13:58;39.20;35.66;41.46;;
43787;Laerm;29409;49.306;8.500;2024-01-10T00:14:59;39.11;35.59;41.68;;
43787;Laerm;29409;49.306;8.500;2024-01-10T00:16:00;39.07;35.66;41.89;;
43787;Laerm;29409;49.306;8.500;2024-01-10T00:17:00;39.01;35.04;41.41;;
43787;Laerm;29409;49.306;8.500;2024-01-10T00:18:00;38.97;35.04;41.82;;
43787;Laerm;29409;49.306;8.500;2024-01-10T00:19:01;38.99;34.69;41.30;;
43787;Laerm;29409;49.306;8.500;2024-01-10T00:20:01;39.43;35.66;41.82;;
43787;Laerm;29409;49.306;8.500;2024-01-10T00:21:01;38.76;33.44;41.30;;
43787;Laerm;29409;49.306;8.500;2024-01-10T00:22:01;39.75;35.36;42.29;;
43787;Laerm;29409;49.306;8.500;2024-01-10T00:23:02;39.92;36.45;42.98;;
43787;Laerm;29409;49.306;8.500;2024-01-10T00:24:02;40.43;37.32;43.09;;
43787;Laerm;29409;49.306;8.500;2024-01-10T00:25:03;40.71;36.45;47.70;;
43787;Laerm;29409;49.306;8.500;2024-01-10T00:26:04;39.81;35.04;42.59;;
43787;Laerm;29409;49.306;8.500;2024-01-10T00:27:04;39.57;35.36;42.16;;
43787;Laerm;29409;49.306;8.500;2024-01-10T00:28:05;39.51;36.20;42.06;;
43787;Laerm;29409;49.306;8.500;2024-01-10T00:29:05;39.35;35.66;41.96;;
43787;Laerm;29409;49.306;8.500;2024-01-10T00:30:06;39.30;34.31;41.82;;
43787;Laerm;29409;49.306;8.500;2024-01-10T00:31:06;39.01;34.69;41.38;;
43787;Laerm;29409;49.306;8.500;2024-01-10T00:32:06;39.20;35.66;41.89;;
43787;Laerm;29409;49.306;8.500;2024-01-10T00:33:07;39.12;35.94;41.53;;
43787;Laerm;29409;49.306;8.500;2024-01-10T00:34:07;39.06;35.94;41.38;;
43787;Laerm;29409;49.306;8.500;2024-01-10T00:35:07;39.31;35.66;41.53;;
43787;Laerm;29409;49.306;8.500;2024-01-10T00:36:08;39.45;35.04;41.82;;
43787;Laerm;29409;49.306;8.500;2024-01-10T00:37:08;39.28;35.94;41.68;;
43787;Laerm;29409;49.306;8.500;2024-01-10T00:38:08;39.50;35.36;43.29;;
43787;Laerm;29409;49.306;8.500;2024-01-10T00:39:09;39.46;36.45;42.03;;
43787;Laerm;29409;49.306;8.500;2024-01-10T00:40:09;39.24;35.94;41.46;;
43787;Laerm;29409;49.306;8.500;2024-01-10T00:41:09;39.32;35.04;41.96;;
43787;Laerm;29409;49.306;8.500;2024-01-10T00:42:11;39.49;35.94;43.39;;
43787;Laerm;29409;49.306;8.500;2024-01-10T00:43:12;39.45;35.94;41.96;;
43787;Laerm;29409;49.306;8.500;2024-01-10T00:44:12;39.33;35.66;41.61;;
43787;Laerm;29409;49.306;8.500;2024-01-10T00:45:12;39.30;35.36;41.75;;
43787;Laerm;29409;49.306;8.500;2024-01-10T00:46:13;39.81;35.94;42.53;;
43787;Laerm;29409;49.306;8.500;2024-01-10T00:47:13;40.01;35.94;42.47;;
43787;Laerm;29409;49.306;8.500;2024-01-10T00:48:13;40.39;36.69;43.14;;
43787;Laerm;29409;49.306;8.500;2024-01-10T00:49:14;41.97;37.70;48.36;;
43787;Laerm;29409;49.306;8.500;2024-01-10T00:50:14;40.14;36.45;42.35;;
43787;Laerm;29409;49.306;8.500;2024-01-10T00:51:15;40.31;36.45;46.33;;
43787;Laerm;29409;49.306;8.500;2024-01-10T00:52:15;39.14;35.94;41.68;;
43787;Laerm;29409;49.306;8.500;2024-01-10T00:53:15;39.14;35.04;42.36;;
43787;Laerm;29409;49.306;8.500;2024-01-10T00:54:19;39.15;35.36;43.34;;
43787;Laerm;29409;49.306;8.500;2024-01-10T00:55:19;40.14;36.45;45.30;;
43787;Laerm;29409;49.306;8.500;2024-01-10T00:56:19;39.33;36.20;41.61;;
43787;Laerm;29409;49.306;8.500;2024-01-10T00:57:20;39.25;36.20;41.75;;
43787;Laerm;29409;49.306;8.500;2024-01-10T00:58:20;39.44;35.94;41.82;;
43787;Laerm;29409;49.306;8.500;2024-01-10T00:59:20;39.50;35.36;41.75;;
43787;Laerm;29409;49.306;8.500;2024-01-10T01:00:21;39.30;35.36;41.61;;
43787;Laerm;29409;49.306;8.500;2024-01-10T01:01:21;39.08;35.36;41.38;;
43787;Laerm;29409;49.306;8.500;2024-01-10T01:02:21;39.09;35.66;41.68;;
43787;Laerm;29409;49.306;8.500;2024-01-10T01:03:21;42.98;35.04;58.77;;
43787;Laerm;29409;49.306;8.500;2024-01-10T01:04:23;39.00;34.69;42.16;;
43787;Laerm;29409;49.306;8.500;2024-01-10T01:05:23;39.24;35.66;41.61;;
43787;Laerm;29409;49.306;8.500;2024-01-10T01:06:24;40.11;36.20;42.53;;
43787;Laerm;29409;49.306;8.500;2024-01-10T01:07:24;39.81;35.66;42.29;;
43787;Laerm;29409;49.306;8.500;2024-01-10T01:08:24;39.69;35.94;42.29;;
43787;Laerm;29409;49.306;8.500;2024-01-10T01:09:24;39.99;36.69;42.03;;
43787;Laerm;29409;49.306;8.500;2024-01-10T01:10:25;39.87;36.69;42.03;;
43787;Laerm;29409;49.306;8.500;2024-01-10T01:11:25;39.54;35.86;42.00;;
43787;Laerm;29409;49.306;8.500;2024-01-10T01:12:25;40.02;36.20;42.71;;
43787;Laerm;29409;49.306;8.500;2024-01-10T01:13:26;39.28;35.36;42.41;;
43787;Laerm;29409;49.306;8.500;2024-01-10T01:14:26;39.17;34.69;41.53;;
43787;Laerm;29409;49.306;8.500;2024-01-10T01:15:26;39.19;34.69;41.68;;
43787;Laerm;29409;49.306;8.500;2024-01-10T01:16:26;40.36;36.20;45.07;;
43787;Laerm;29409;49.306;8.500;2024-01-10T01:17:27;41.89;37.52;47.52;;
43787;Laerm;29409;49.306;8.500;2024-01-10T01:18:27;39.67;35.66;42.53;;
43787;Laerm;29409;49.306;8.500;2024-01-10T01:19:27;39.18;34.69;41.96;;
43787;Laerm;29409;49.306;8.500;2024-01-10T01:20:28;39.06;35.94;41.53;;
43787;Laerm;29409;49.306;8.500;2024-01-10T01:21:28;39.02;35.94;44.62;;
43787;Laerm;29409;49.306;8.500;2024-01-10T01:22:28;39.64;35.66;44.47;;
43787;Laerm;29409;49.306;8.500;2024-01-10T01:23:28;39.64;36.20;42.29;;
43787;Laerm;29409;49.306;8.500;2024-01-10T01:24:29;39.88;35.94;42.59;;
43787;Laerm;29409;49.306;8.500;2024-01-10T01:25:29;39.45;36.69;41.89;;
43787;Laerm;29409;49.306;8.500;2024-01-10T01:26:29;40.04;35.36;42.53;;
43787;Laerm;29409;49.306;8.500;2024-01-10T01:27:29;39.97;36.20;42.16;;
43787;Laerm;29409;49.306;8.500;2024-01-10T01:28:30;39.81;36.45;42.16;;
43787;Laerm;29409;49.306;8.500;2024-01-10T01:29:30;39.88;36.56;41.89;;
43787;Laerm;29409;49.306;8.500;2024-01-10T01:30:30;39.71;33.44;42.24;;
43787;Laerm;29409;49.306;8.500;2024-01-10T01:31:31;39.96;36.91;42.82;;
43787;Laerm;29409;49.306;8.500;2024-01-10T01:32:31;40.08;36.69;49.02;;
43787;Laerm;29409;49.306;8.500;2024-01-10T01:33:31;39.98;35.36;43.77;;
43787;Laerm;29409;49.306;8.500;2024-01-10T01:34:32;39.92;36.69;44.31;;
43787;Laerm;29409;49.306;8.500;2024-01-10T01:35:32;40.31;37.12;42.22;;
43787;Laerm;29409;49.306;8.500;2024-01-10T01:36:33;39.93;36.56;42.35;;
43787;Laerm;29409;49.306;8.500;2024-01-10T01:37:34;39.79;35.36;42.09;;
43787;Laerm;29409;49.306;8.500;2024-01-10T01:38:35;39.39;35.66;41.82;;
43787;Laerm;29409;49.306;8.500;2024-01-10T01:39:35;39.06;35.36;41.53;;
43787;Laerm;29409;49.306;8.500;2024-01-10T01:40:35;39.49;35.94;41.68;;
43787;Laerm;29409;49.306;8.500;2024-01-10T01:41:36;39.76;36.20;42.09;;
43787;Laerm;29409;49.306;8.500;2024-01-10T01:42:36;40.01;36.69;43.63;;
43787;Laerm;29409;49.306;8.500;2024-01-10T01:43:36;39.86;36.45;42.09;;
43787;Laerm;29409;49.306;8.500;2024-01-10T01:44:37;39.70;36.45;45.42;;
43787;Laerm;29409;49.306;8.500;2024-01-10T01:45:37;40.28;36.69;43.44;;
43787;Laerm;29409;49.306;8.500;2024-01-10T01:46:37;39.95;36.91;42.35;;
43787;Laerm;29409;49.306;8.500;2024-01-10T01:47:40;40.47;35.66;43.24;;
43787;Laerm;29409;49.306;8.500;2024-01-10T01:48:40;39.99;36.69;42.88;;
43787;Laerm;29409;49.306;8.500;2024-01-10T01:49:42;40.55;37.52;42.71;;
43787;Laerm;29409;49.306;8.500;2024-01-10T01:50:43;39.82;36.10;42.29;;
43787;Laerm;29409;49.306;8.500;2024-01-10T01:51:44;41.70;36.20;61.81;;
43787;Laerm;29409;49.306;8.500;2024-01-10T01:52:46;39.75;36.45;47.38;;
43787;Laerm;29409;49.306;8.500;2024-01-10T01:53:46;40.64;36.91;50.32;;
43787;Laerm;29409;49.306;8.500;2024-01-10T01:54:48;40.40;36.20;43.04;;
43787;Laerm;29409;49.306;8.500;2024-01-10T01:55:48;40.95;37.12;43.24;;
43787;Laerm;29409;49.306;8.500;2024-01-10T01:56:49;40.66;37.87;47.84;;
43787;Laerm;29409;49.306;8.500;2024-01-10T01:57:49;40.31;37.32;42.53;;
43787;Laerm;29409;49.306;8.500;2024-01-10T01:58:50;41.42;37.52;53.99;;
43787;Laerm;29409;49.306;8.500;2024-01-10T01:59:51;40.30;36.20;44.35;;
43787;Laerm;29409;49.306;8.500;2024-01-10T02:00:51;39.26;36.20;41.53;;
43787;Laerm;29409;49.306;8.500;2024-01-10T02:01:52;39.34;35.94;42.09;;
43787;Laerm;29409;49.306;8.500;2024-01-10T02:02:54;40.64;37.12;46.23;;
43787;Laerm;29409;49.306;8.500;2024-01-10T02:03:54;40.50;36.45;43.19;;
43787;Laerm;29409;49.306;8.500;2024-01-10T02:04:55;39.69;35.04;42.41;;
43787;Laerm;29409;49.306;8.500;2024-01-10T02:05:56;39.96;37.32;42.09;;
43787;Laerm;29409;49.306;8.500;2024-01-10T02:06:57;40.29;36.69;42.47;;
43787;Laerm;29409;49.306;8.500;2024-01-10T02:07:57;40.00;36.20;42.29;;
43787;Laerm;29409;49.306;8.500;2024-01-10T02:08:58;40.02;36.69;42.22;;
43787;Laerm;29409;49.306;8.500;2024-01-10T02:09:58;39.65;33.90;41.96;;
43787;Laerm;29409;49.306;8.500;2024-01-10T02:11:01;39.67;35.66;42.88;;
43787;Laerm;29409;49.306;8.500;2024-01-10T02:12:02;39.47;35.31;42.29;;
43787;Laerm;29409;49.306;8.500;2024-01-10T02:13:04;39.48;35.36;41.89;;
43787;Laerm;29409;49.306;8.500;2024-01-10T02:14:05;39.87;36.69;42.16;;
43787;Laerm;29409;49.306;8.500;2024-01-10T02:15:05;39.96;36.20;42.16;;
43787;Laerm;29409;49.306;8.500;2024-01-10T02:16:06;39.98;36.69;43.09;;
43787;Laerm;29409;49.306;8.500;2024-01-10T02:17:06;39.83;36.69;42.09;;
43787;Laerm;29409;49.306;8.500;2024-01-10T02:18:06;39.68;35.66;41.89;;
43787;Laerm;29409;49.306;8.500;2024-01-10T02:19:19;40.01;35.94;42.29;;
43787;Laerm;29409;49.306;8.500;2024-01-10T02:20:19;40.13;37.32;42.76;;
43787;Laerm;29409;49.306;8.500;2024-01-10T02:21:21;40.14;37.12;42.64;;
43787;Laerm;29409;49.306;8.500;2024-01-10T02:22:21;40.16;36.20;43.04;;
43787;Laerm;29409;49.306;8.500;2024-01-10T02:23:22;40.12;37.12;42.93;;
43787;Laerm;29409;49.306;8.500;2024-01-10T02:24:22;40.58;36.91;43.85;;
43787;Laerm;29409;49.306;8.500;2024-01-10T02:25:22;40.63;36.91;43.14;;
43787;Laerm;29409;49.306;8.500;2024-01-10T02:26:23;40.51;37.32;42.98;;
43787;Laerm;29409;49.306;8.500;2024-01-10T02:27:23;40.58;37.32;42.71;;
43787;Laerm;29409;49.306;8.500;2024-01-10T02:28:24;40.10;35.94;42.47;;
43787;Laerm;29409;49.306;8.500;2024-01-10T02:29:24;39.70;35.36;42.47;;
43787;Laerm;29409;49.306;8.500;2024-01-10T02:30:24;39.60;35.31;43.14;;
43787;Laerm;29409;49.306;8.500;2024-01-10T02:31:25;39.45;35.66;41.96;;
43787;Laerm;29409;49.306;8.500;2024-01-10T02:32:27;39.31;35.66;41.68;;
43787;Laerm;29409;49.306;8.500;2024-01-10T02:33:27;39.36;35.36;41.75;;
43787;Laerm;29409;49.306;8.500;2024-01-10T02:34:29;39.55;35.04;42.53;;
43787;Laerm;29409;49.306;8.500;2024-01-10T02:35:30;40.19;37.12;42.82;;
43787;Laerm;29409;49.306;8.500;2024-01-10T02:36:32;39.96;36.20;42.59;;
43787;Laerm;29409;49.306;8.500;2024-01-10T02:37:33;39.91;36.20;42.41;;
43787;Laerm;29409;49.306;8.500;2024-01-10T02:38:33;39.86;36.91;42.35;;
43787;Laerm;29409;49.306;8.500;2024-01-10T02:39:33;40.46;37.12;42.82;;
43787;Laerm;29409;49.306;8.500;2024-01-10T02:40:34;40.24;37.70;42.41;;
43787;Laerm;29409;49.306;8.500;2024-01-10T02:41:34;40.83;36.91;47.12;;
43787;Laerm;29409;49.306;8.500;2024-01-10T02:42:34;40.60;37.32;42.98;;
43787;Laerm;29409;49.306;8.500;2024-01-10T02:43:35;40.23;36.45;43.63;;
43787;Laerm;29409;49.306;8.500;2024-01-10T02:44:35;40.88;35.94;49.73;;
43787;Laerm;29409;49.306;8.500;2024-01-10T02:45:35;39.83;36.45;43.68;;
43787;Laerm;29409;49.306;8.500;2024-01-10T02:46:36;39.71;36.20;42.03;;
43787;Laerm;29409;49.306;8.500;2024-01-10T02:47:36;39.82;34.31;42.16;;
43787;Laerm;29409;49.306;8.500;2024-01-10T02:48:37;39.72;36.45;42.09;;
43787;Laerm;29409;49.306;8.500;2024-01-10T02:49:38;39.62;36.34;42.53;;
43787;Laerm;29409;49.306;8.500;2024-01-10T02:50:38;39.26;35.36;41.82;;
43787;Laerm;29409;49.306;8.500;2024-01-10T02:51:38;39.27;35.94;42.53;;
43787;Laerm;29409;49.306;8.500;2024-01-10T02:52:40;39.25;35.94;41.38;;
43787;Laerm;29409;49.306;8.500;2024-01-10T02:53:41;39.25;35.66;41.75;;
43787;Laerm;29409;49.306;8.500;2024-01-10T02:54:42;39.26;34.69;41.46;;
43787;Laerm;29409;49.306;8.500;2024-01-10T02:55:42;39.52;35.66;41.68;;
43787;Laerm;29409;49.306;8.500;2024-01-10T02:56:43;39.62;36.45;42.41;;
43787;Laerm;29409;49.306;8.500;2024-01-10T02:57:44;39.72;34.31;42.16;;
43787;Laerm;29409;49.306;8.500;2024-01-10T02:58:44;39.83;36.56;41.96;;
43787;Laerm;29409;49.306;8.500;2024-01-10T02:59:44;39.88;36.98;42.03;;
43787;Laerm;29409;49.306;8.500;2024-01-10T03:00:44;39.57;36.69;42.09;;
43787;Laerm;29409;49.306;8.500;2024-01-10T03:01:45;40.23;36.91;42.22;;
43787;Laerm;29409;49.306;8.500;2024-01-10T03:02:45;40.64;36.69;45.75;;
43787;Laerm;29409;49.306;8.500;2024-01-10T03:03:45;40.07;35.94;42.47;;
43787;Laerm;29409;49.306;8.500;2024-01-10T03:04:46;40.26;36.91;43.58;;
43787;Laerm;29409;49.306;8.500;2024-01-10T03:05:46;39.59;35.36;42.09;;
43787;Laerm;29409;49.306;8.500;2024-01-10T03:06:46;39.51;35.94;42.65;;
43787;Laerm;29409;49.306;8.500;2024-01-10T03:07:46;40.22;36.45;43.81;;
43787;Laerm;29409;49.306;8.500;2024-01-10T03:08:47;41.17;37.32;44.62;;
43787;Laerm;29409;49.306;8.500;2024-01-10T03:09:47;40.48;37.52;42.98;;
43787;Laerm;29409;49.306;8.500;2024-01-10T03:10:47;41.30;37.70;50.36;;
43787;Laerm;29409;49.306;8.500;2024-01-10T03:11:47;42.22;38.05;50.59;;
43787;Laerm;29409;49.306;8.500;2024-01-10T03:12:48;40.25;37.32;44.35;;
43787;Laerm;29409;49.306;8.500;2024-01-10T03:13:49;40.40;37.52;42.65;;
43787;Laerm;29409;49.306;8.500;2024-01-10T03:14:50;40.03;35.04;42.95;;
43787;Laerm;29409;49.306;8.500;2024-01-10T03:15:50;39.75;36.20;42.29;;
43787;Laerm;29409;49.306;8.500;2024-01-10T03:16:50;39.55;35.36;41.89;;
43787;Laerm;29409;49.306;8.500;2024-01-10T03:17:50;39.43;35.04;42.35;;
43787;Laerm;29409;49.306;8.500;2024-01-10T03:18:51;41.44;36.69;45.30;;
43787;Laerm;29409;49.306;8.500;2024-01-10T03:19:51;42.00;37.70;44.90;;
43787;Laerm;29409;49.306;8.500;2024-01-10T03:20:51;40.63;36.91;43.99;;
43787;Laerm;29409;49.306;8.500;2024-01-10T03:21:51;40.75;37.88;46.95;;
43787;Laerm;29409;49.306;8.500;2024-01-10T03:22:52;40.40;37.52;42.76;;
43787;Laerm;29409;49.306;8.500;2024-01-10T03:23:54;40.38;36.45;43.77;;
43787;Laerm;29409;49.306;8.500;2024-01-10T03:24:55;41.71;38.21;45.20;;
43787;Laerm;29409;49.306;8.500;2024-01-10T03:25:55;40.24;36.69;42.41;;
43787;Laerm;29409;49.306;8.500;2024-01-10T03:26:56;40.29;36.45;44.03;;
43787;Laerm;29409;49.306;8.500;2024-01-10T03:27:56;40.46;36.91;46.48;;
43787;Laerm;29409;49.306;8.500;2024-01-10T03:28:56;40.18;35.94;42.76;;
43787;Laerm;29409;49.306;8.500;2024-01-10T03:29:57;40.21;37.12;42.35;;
43787;Laerm;29409;49.306;8.500;2024-01-10T03:30:57;40.32;36.45;42.65;;
43787;Laerm;29409;49.306;8.500;2024-01-10T03:31:58;42.97;37.88;52.36;;
43787;Laerm;29409;49.306;8.500;2024-01-10T03:32:58;43.17;38.81;50.71;;
43787;Laerm;29409;49.306;8.500;2024-01-10T03:33:58;41.59;37.70;44.65;;
43787;Laerm;29409;49.306;8.500;2024-01-10T03:34:58;41.08;38.37;43.49;;
43787;Laerm;29409;49.306;8.500;2024-01-10T03:35:59;42.98;38.95;55.22;;
43787;Laerm;29409;49.306;8.500;2024-01-10T03:36:59;43.40;41.38;56.39;;
43787;Laerm;29409;49.306;8.500;2024-01-10T03:37:59;43.85;41.89;53.57;;
43787;Laerm;29409;49.306;8.500;2024-01-10T03:38:59;42.99;40.80;44.31;;
43787;Laerm;29409;49.306;8.500;2024-01-10T03:40:00;43.28;41.33;51.08;;
43787;Laerm;29409;49.306;8.500;2024-01-10T03:41:00;43.80;41.68;48.95;;
43787;Laerm;29409;49.306;8.500;2024-01-10T03:42:01;43.99;41.68;62.38;;
43787;Laerm;29409;49.306;8.500;2024-01-10T03:43:01;43.94;37.87;61.14;;
43787;Laerm;29409;49.306;8.500;2024-01-10T03:44:01;40.94;36.69;45.42;;
43787;Laerm;29409;49.306;8.500;2024-01-10T03:45:01;42.04;38.37;48.42;;
43787;Laerm;29409;49.306;8.500;2024-01-10T03:46:03;42.50;37.52;48.92;;
43787;Laerm;29409;49.306;8.500;2024-01-10T03:47:03;42.08;38.81;48.90;;
43787;Laerm;29409;49.306;8.500;2024-01-10T03:48:04;42.41;37.88;51.57;;
43787;Laerm;29409;49.306;8.500;2024-01-10T03:49:04;41.43;37.88;45.48;;
43787;Laerm;29409;49.306;8.500;2024-01-10T03:50:05;40.45;36.45;45.91;;
43787;Laerm;29409;49.306;8.500;2024-01-10T03:51:06;40.71;36.69;45.93;;
43787;Laerm;29409;49.306;8.500;2024-01-10T03:52:07;41.52;37.52;51.06;;
43787;Laerm;29409;49.306;8.500;2024-01-10T03:53:07;40.59;37.70;43.19;;
43787;Laerm;29409;49.306;8.500;2024-01-10T03:54:07;40.52;35.94;43.09;;
43787;Laerm;29409;49.306;8.500;2024-01-10T03:55:08;42.27;37.70;45.07;;
43787;Laerm;29409;49.306;8.500;2024-01-10T03:56:09;41.89;38.52;45.17;;
43787;Laerm;29409;49.306;8.500;2024-01-10T03:57:09;40.79;36.91;44.62;;
43787;Laerm;29409;49.306;8.500;2024-01-10T03:58:09;40.67;36.91;45.17;;
43787;Laerm;29409;49.306;8.500;2024-01-10T03:59:10;39.89;36.45;42.47;;
43787;Laerm;29409;49.306;8.500;2024-01-10T04:00:10;40.16;36.45;42.93;;
43787;Laerm;29409;49.306;8.500;2024-01-10T04:01:11;40.49;36.45;44.43;;
43787;Laerm;29409;49.306;8.500;2024-01-10T04:02:11;40.49;36.69;45.91;;
43787;Laerm;29409;49.306;8.500;2024-01-10T04:03:11;40.53;37.12;42.58;;
43787;Laerm;29409;49.306;8.500;2024-01-10T04:04:12;40.75;37.52;45.36;;
43787;Laerm;29409;49.306;8.500;2024-01-10T04:05:12;40.56;37.52;42.88;;
43787;Laerm;29409;49.306;8.500;2024-01-10T04:06:13;40.99;36.91;43.29;;
43787;Laerm;29409;49.306;8.500;2024-01-10T04:07:13;41.07;37.70;45.39;;
43787;Laerm;29409;49.306;8.500;2024-01-10T04:08:15;40.75;37.12;46.59;;
43787;Laerm;29409;49.306;8.500;2024-01-10T04:09:15;40.84;37.32;45.42;;
43787;Laerm;29409;49.306;8.500;2024-01-10T04:10:16;41.70;37.52;45.51;;
43787;Laerm;29409;49.306;8.500;2024-01-10T04:11:16;40.28;36.69;42.53;;
43787;Laerm;29409;49.306;8.500;2024-01-10T04:12:17;41.34;38.02;44.35;;
43787;Laerm;29409;49.306;8.500;2024-01-10T04:13:17;42.56;37.88;49.00;;
43787;Laerm;29409;49.306;8.500;2024-01-10T04:14:17;41.71;37.12;47.74;;
43787;Laerm;29409;49.306;8.500;2024-01-10T04:15:17;41.19;36.91;45.11;;
43787;Laerm;29409;49.306;8.500;2024-01-10T04:16:18;41.05;37.70;45.07;;
43787;Laerm;29409;49.306;8.500;2024-01-10T04:17:18;43.40;38.37;51.84;;
43787;Laerm;29409;49.306;8.500;2024-01-10T04:18:19;40.68;36.20;44.51;;
43787;Laerm;29409;49.306;8.500;2024-01-10T04:19:19;47.46;38.52;62.71;;
43787;Laerm;29409;49.306;8.500;2024-01-10T04:20:19;41.57;38.05;46.78;;
43787;Laerm;29409;49.306;8.500;2024-01-10T04:21:19;40.91;37.12;44.58;;
43787;Laerm;29409;49.306;8.500;2024-01-10T04:22:20;40.58;35.36;46.76;;
43787;Laerm;29409;49.306;8.500;2024-01-10T04:23:20;42.10;37.12;46.40;;
43787;Laerm;29409;49.306;8.500;2024-01-10T04:24:20;41.09;36.69;45.72;;
43787;Laerm;29409;49.306;8.500;2024-01-10T04:25:20;42.47;38.37;48.77;;
43787;Laerm;29409;49.306;8.500;2024-01-10T04:26:21;41.20;36.69;47.46;;
43787;Laerm;29409;49.306;8.500;2024-01-10T04:27:21;40.39;37.12;44.65;;
43787;Laerm;29409;49.306;8.500;2024-01-10T04:28:22;42.10;37.12;48.63;;
43787;Laerm;29409;49.306;8.500;2024-01-10T04:29:22;40.43;35.66;43.64;;
43787;Laerm;29409;49.306;8.500;2024-01-10T04:30:23;42.07;37.52;46.10;;
43787;Laerm;29409;49.306;8.500;2024-01-10T04:31:23;42.95;38.81;49.67;;
43787;Laerm;29409;49.306;8.500;2024-01-10T04:32:24;40.96;37.32;45.01;;
43787;Laerm;29409;49.306;8.500;2024-01-10T04:33:24;42.17;38.05;50.54;;
43787;Laerm;29409;49.306;8.500;2024-01-10T04:34:24;43.08;39.34;54.73;;
43787;Laerm;29409;49.306;8.500;2024-01-10T04:35:24;43.51;39.08;54.40;;
43787;Laerm;29409;49.306;8.500;2024-01-10T04:36:25;42.30;38.52;50.53;;
43787;Laerm;29409;49.306;8.500;2024-01-10T04:37:25;41.15;37.70;46.50;;
43787;Laerm;29409;49.306;8.500;2024-01-10T04:38:26;41.90;37.32;48.31;;
43787;Laerm;29409;49.306;8.500;2024-01-10T04:39:26;41.23;35.94;44.54;;
43787;Laerm;29409;49.306;8.500;2024-01-10T04:40:27;47.01;38.99;62.12;;
43787;Laerm;29409;49.306;8.500;2024-01-10T04:41:27;41.85;38.05;49.80;;
43787;Laerm;29409;49.306;8.500;2024-01-10T04:42:27;42.73;39.35;53.45;;
43787;Laerm;29409;49.306;8.500;2024-01-10T04:43:27;42.01;36.91;57.94;;
43787;Laerm;29409;49.306;8.500;2024-01-10T04:44:28;43.62;37.52;48.99;;
43787;Laerm;29409;49.306;8.500;2024-01-10T04:45:28;42.12;38.21;45.27;;
43787;Laerm;29409;49.306;8.500;2024-01-10T04:46:28;42.83;38.67;46.38;;
43787;Laerm;29409;49.306;8.500;2024-01-10T04:47:29;44.10;41.06;50.20;;
43787;Laerm;29409;49.306;8.500;2024-01-10T04:48:29;41.44;37.70;44.54;;
43787;Laerm;29409;49.306;8.500;2024-01-10T04:49:29;43.12;38.67;47.81;;
43787;Laerm;29409;49.306;8.500;2024-01-10T04:50:29;41.30;38.05;46.97;;
43787;Laerm;29409;49.306;8.500;2024-01-10T04:51:30;41.56;38.05;46.54;;
43787;Laerm;29409;49.306;8.500;2024-01-10T04:52:30;42.11;38.52;52.48;;
43787;Laerm;29409;49.306;8.500;2024-01-10T04:53:30;41.62;37.12;49.38;;
43787;Laerm;29409;49.306;8.500;2024-01-10T04:54:31;48.55;37.88;65.91;;
43787;Laerm;29409;49.306;8.500;2024-01-10T04:55:38;42.94;38.21;51.34;;
43787;Laerm;29409;49.306;8.500;2024-01-10T04:56:38;42.04;38.21;47.68;;
43787;Laerm;29409;49.306;8.500;2024-01-10T04:57:39;41.47;37.52;46.69;;
43787;Laerm;29409;49.306;8.500;2024-01-10T04:58:39;40.81;37.32;45.23;;
43787;Laerm;29409;49.306;8.500;2024-01-10T04:59:39;40.24;37.52;42.53;;
43787;Laerm;29409;49.306;8.500;2024-01-10T05:00:41;41.48;37.88;45.07;;
43787;Laerm;29409;49.306;8.500;2024-01-10T05:01:41;42.53;38.67;49.90;;
43787;Laerm;29409;49.306;8.500;2024-01-10T05:02:41;41.98;38.37;47.36;;
43787;Laerm;29409;49.306;8.500;2024-01-10T05:03:41;44.31;38.21;52.57;;
43787;Laerm;29409;49.306;8.500;2024-01-10T05:04:42;42.97;39.34;47.12;;
43787;Laerm;29409;49.306;8.500;2024-01-10T05:05:42;42.42;38.05;49.80;;
43787;Laerm;29409;49.306;8.500;2024-01-10T05:06:42;41.82;38.05;46.15;;
43787;Laerm;29409;49.306;8.500;2024-01-10T05:07:43;41.21;38.52;43.29;;
43787;Laerm;29409;49.306;8.500;2024-01-10T05:08:46;41.87;38.37;46.78;;
43787;Laerm;29409;49.306;8.500;2024-01-10T05:09:46;44.27;39.70;59.63;;
43787;Laerm;29409;49.306;8.500;2024-01-10T05:10:46;42.56;39.08;51.87;;
43787;Laerm;29409;49.306;8.500;2024-01-10T05:11:47;41.08;37.52;46.62;;
43787;Laerm;29409;49.306;8.500;2024-01-10T05:12:48;41.52;38.05;46.66;;
43787;Laerm;29409;49.306;8.500;2024-01-10T05:13:48;43.95;38.81;53.10;;
43787;Laerm;29409;49.306;8.500;2024-01-10T05:14:49;43.16;38.52;48.85;;
43787;Laerm;29409;49.306;8.500;2024-01-10T05:15:49;41.42;38.37;45.94;;
43787;Laerm;29409;49.306;8.500;2024-01-10T05:16:49;43.05;37.87;49.57;;
43787;Laerm;29409;49.306;8.500;2024-01-10T05:17:50;42.33;38.37;46.64;;
43787;Laerm;29409;49.306;8.500;2024-01-10T05:18:50;41.40;38.21;44.80;;
43787;Laerm;29409;49.306;8.500;2024-01-10T05:19:50;41.63;37.88;46.69;;
43787;Laerm;29409;49.306;8.500;2024-01-10T05:20:53;42.50;39.34;50.44;;
43787;Laerm;29409;49.306;8.500;2024-01-10T05:21:53;42.10;38.81;47.83;;
43787;Laerm;29409;49.306;8.500;2024-01-10T05:22:55;42.10;39.34;46.91;;
43787;Laerm;29409;49.306;8.500;2024-01-10T05:23:58;43.93;38.52;53.36;;
43787;Laerm;29409;49.306;8.500;2024-01-10T05:24:58;41.73;38.37;45.75;;
43787;Laerm;29409;49.306;8.500;2024-01-10T05:26:00;41.76;38.52;45.11;;
43787;Laerm;29409;49.306;8.500;2024-01-10T05:27:00;42.54;38.81;47.16;;
43787;Laerm;29409;49.306;8.500;2024-01-10T05:28:00;41.79;38.21;47.43;;
43787;Laerm;29409;49.306;8.500;2024-01-10T05:29:01;43.09;39.81;48.39;;
43787;Laerm;29409;49.306;8.500;2024-01-10T05:30:01;42.16;38.81;45.91;;
43787;Laerm;29409;49.306;8.500;2024-01-10T05:31:01;42.27;38.52;53.18;;
43787;Laerm;29409;49.306;8.500;2024-01-10T05:32:02;44.15;40.71;48.94;;
43787;Laerm;29409;49.306;8.500;2024-01-10T05:33:02;43.40;39.21;51.70;;
43787;Laerm;29409;49.306;8.500;2024-01-10T05:34:02;43.12;39.70;49.00;;
43787;Laerm;29409;49.306;8.500;2024-01-10T05:35:03;42.70;39.58;48.69;;
43787;Laerm;29409;49.306;8.500;2024-01-10T05:36:03;41.51;38.81;44.43;;
43787;Laerm;29409;49.306;8.500;2024-01-10T05:37:03;42.06;39.08;50.31;;
43787;Laerm;29409;49.306;8.500;2024-01-10T05:38:04;42.64;39.81;46.78;;
43787;Laerm;29409;49.306;8.500;2024-01-10T05:39:05;42.56;39.81;48.34;;